createdAt,value
2022-10-11T00:01:06.413Z,14.77
2022-10-11T00:04:12.473Z,14.62
2022-10-11T00:07:20.087Z,14.49
2022-10-11T00:10:25.870Z,14.76
2022-10-11T00:13:31.953Z,14.77
2022-10-11T00:16:41.133Z,14.69
2022-10-11T00:19:46.744Z,14.67
2022-10-11T00:22:52.052Z,14.45
2022-10-11T00:26:03.698Z,14.23
2022-10-11T00:29:09.818Z,14.40
2022-10-11T00:32:15.316Z,14.59
2022-10-11T00:35:20.974Z,14.53
2022-10-11T00:38:26.676Z,14.34
2022-10-11T00:41:32.483Z,14.32
2022-10-11T00:44:38.282Z,14.53
2022-10-11T00:47:44.297Z,14.51
2022-10-11T00:50:50.540Z,14.44
2022-10-11T00:53:55.922Z,14.29
2022-10-11T00:57:07.560Z,14.45
2022-10-11T01:00:15.109Z,14.33
2022-10-11T01:03:25.193Z,14.28
2022-10-11T01:06:30.788Z,14.28
2022-10-11T01:09:37.194Z,14.28
2022-10-11T01:13:08.822Z,14.24
2022-10-11T01:16:18.009Z,14.19
2022-10-11T01:19:38.973Z,14.29
2022-10-11T01:23:01.952Z,14.31
2022-10-11T01:26:57.012Z,14.19
2022-10-11T01:30:21.914Z,13.96
2022-10-11T01:33:45.810Z,14.02
2022-10-11T01:37:13.076Z,13.89
2022-10-11T01:40:25.504Z,14.06
2022-10-11T01:43:33.926Z,14.02
2022-10-11T01:46:39.434Z,13.95
2022-10-11T01:49:46.499Z,14.15
2022-10-11T01:52:52.486Z,14.18
2022-10-11T01:56:10.396Z,14.19
2022-10-11T01:59:28.993Z,13.93
2022-10-11T02:02:54.698Z,13.79
2022-10-11T02:06:17.653Z,13.75
2022-10-11T02:09:27.478Z,13.77
2022-10-11T02:12:49.752Z,13.54
2022-10-11T02:15:58.734Z,13.74
2022-10-11T02:19:07.109Z,13.76
2022-10-11T02:22:21.493Z,13.56
2022-10-11T02:25:30.920Z,13.66
2022-10-11T02:28:40.356Z,13.70
2022-10-11T02:31:47.713Z,13.56
2022-10-11T02:34:57.281Z,13.58
2022-10-11T02:38:20.145Z,13.70
2022-10-11T02:41:31.705Z,13.64
2022-10-11T02:44:43.956Z,13.76
2022-10-11T02:47:49.489Z,13.72
2022-10-11T02:50:56.934Z,13.75
2022-10-11T02:54:03.115Z,13.67
2022-10-11T02:57:08.970Z,13.66
2022-10-11T03:00:15.438Z,13.63
2022-10-11T03:03:20.930Z,13.63
2022-10-11T03:06:27.023Z,13.59
2022-10-11T03:09:32.369Z,13.46
2022-10-11T03:12:37.676Z,13.31
2022-10-11T03:15:43.184Z,13.28
2022-10-11T03:18:48.678Z,13.18
2022-10-11T03:21:54.297Z,13.15
2022-10-11T03:25:04.041Z,13.31
2022-10-11T03:28:10.270Z,13.27
2022-10-11T03:31:16.101Z,13.24
2022-10-11T03:34:21.809Z,13.24
2022-10-11T03:37:27.990Z,13.30
2022-10-11T03:40:33.725Z,13.39
2022-10-11T03:43:39.168Z,13.38
2022-10-11T03:46:44.564Z,13.42
2022-10-11T03:49:49.958Z,13.44
2022-10-11T03:52:55.560Z,13.44
2022-10-11T03:56:05.892Z,13.33
2022-10-11T03:59:13.675Z,13.28
2022-10-11T04:02:19.586Z,13.34
2022-10-11T04:05:25.912Z,13.24
2022-10-11T04:08:31.391Z,13.09
2022-10-11T04:11:36.699Z,13.02
2022-10-11T04:14:41.854Z,13.01
2022-10-11T04:17:47.059Z,13.03
2022-10-11T04:20:52.491Z,13.10
2022-10-11T04:23:57.962Z,13.03
2022-10-11T04:27:03.386Z,13.03
2022-10-11T04:30:09.828Z,12.93
2022-10-11T04:33:15.091Z,12.96
2022-10-11T04:36:20.594Z,13.04
2022-10-11T04:39:26.183Z,13.09
2022-10-11T04:42:31.566Z,13.02
2022-10-11T04:45:37.186Z,13.05
2022-10-11T04:48:43.169Z,13.08
2022-10-11T04:51:48.967Z,12.95
2022-10-11T04:54:54.255Z,12.96
2022-10-11T04:57:59.829Z,13.00
2022-10-11T05:01:05.532Z,13.08
2022-10-11T05:04:10.989Z,13.03
2022-10-11T05:07:16.727Z,13.03
2022-10-11T05:10:21.684Z,13.14
2022-10-11T05:13:28.429Z,13.14
2022-10-11T05:16:33.898Z,13.04
2022-10-11T05:19:39.455Z,12.80
2022-10-11T05:22:45.046Z,12.85
2022-10-11T05:25:50.788Z,13.09
2022-10-11T05:28:56.241Z,13.07
2022-10-11T05:32:01.915Z,13.03
2022-10-11T05:35:08.044Z,13.06
2022-10-11T05:38:13.258Z,13.02
2022-10-11T05:41:18.846Z,13.10
2022-10-11T05:44:24.662Z,12.99
2022-10-11T05:47:30.549Z,13.03
2022-10-11T05:50:37.062Z,12.98
2022-10-11T05:53:42.540Z,13.01
2022-10-11T05:56:48.857Z,12.92
2022-10-11T05:59:54.562Z,13.07
2022-10-11T06:03:00.492Z,12.93
2022-10-11T06:06:06.156Z,12.96
2022-10-11T06:09:12.643Z,12.92
2022-10-11T06:12:19.051Z,12.86
2022-10-11T06:15:25.595Z,12.89
2022-10-11T06:18:32.050Z,12.95
2022-10-11T06:21:37.729Z,13.07
2022-10-11T06:24:43.496Z,13.25
2022-10-11T06:27:49.214Z,13.42
2022-10-11T06:30:56.233Z,13.54
2022-10-11T06:34:02.404Z,13.56
2022-10-11T06:37:08.124Z,13.52
2022-10-11T06:40:13.711Z,13.60
2022-10-11T06:43:19.608Z,13.69
2022-10-11T06:46:27.733Z,13.82
2022-10-11T06:49:33.558Z,13.89
2022-10-11T06:52:38.934Z,13.90
2022-10-11T06:55:44.566Z,13.92
2022-10-11T06:58:51.690Z,13.94
2022-10-11T07:01:57.400Z,14.14
2022-10-11T07:05:02.979Z,14.18
2022-10-11T07:08:08.439Z,14.20
2022-10-11T07:11:27.023Z,14.31
2022-10-11T07:14:32.485Z,14.35
2022-10-11T07:17:38.053Z,14.34
2022-10-11T07:20:43.646Z,14.28
2022-10-11T07:23:49.521Z,14.50
2022-10-11T07:26:55.469Z,14.61
2022-10-11T07:30:00.905Z,14.81
2022-10-11T07:33:07.015Z,14.73
2022-10-11T07:36:13.683Z,14.75
2022-10-11T07:39:19.532Z,14.92
2022-10-11T07:42:24.971Z,15.02
2022-10-11T07:45:30.665Z,15.09
2022-10-11T07:48:37.515Z,15.17
2022-10-11T07:51:43.968Z,15.28
2022-10-11T07:54:50.172Z,15.33
2022-10-11T07:57:56.561Z,15.47
2022-10-11T08:01:02.444Z,15.44
2022-10-11T08:04:08.228Z,15.63
2022-10-11T08:07:13.844Z,15.55
2022-10-11T08:10:19.412Z,15.49
2022-10-11T08:13:24.912Z,15.83
2022-10-11T08:16:30.564Z,16.00
2022-10-11T08:19:36.233Z,15.94
2022-10-11T08:22:42.252Z,15.98
2022-10-11T08:25:48.893Z,16.00
2022-10-11T08:28:54.771Z,16.06
2022-10-11T08:32:01.221Z,16.41
2022-10-11T08:35:07.502Z,16.31
2022-10-11T08:38:14.471Z,16.43
2022-10-11T08:41:35.441Z,16.55
2022-10-11T08:45:16.458Z,16.69
2022-10-11T08:48:15.607Z,16.76
2022-10-11T08:52:04.965Z,16.94
2022-10-11T08:55:22.072Z,16.99
2022-10-11T08:58:59.400Z,17.17
2022-10-11T09:02:55.595Z,17.14
2022-10-11T09:06:20.745Z,17.13
2022-10-11T09:09:56.538Z,17.18
2022-10-11T09:13:13.998Z,17.27
2022-10-11T09:16:35.980Z,17.53
2022-10-11T09:19:44.094Z,17.51
2022-10-11T09:23:08.102Z,17.51
2022-10-11T09:26:16.811Z,17.74
2022-10-11T09:29:40.837Z,17.85
2022-10-11T09:33:02.748Z,17.74
2022-10-11T09:36:32.028Z,18.02
2022-10-11T09:39:45.653Z,18.15
2022-10-11T09:42:51.506Z,18.13
2022-10-11T09:45:57.350Z,18.01
2022-10-11T09:49:12.697Z,18.20
2022-10-11T09:52:21.241Z,18.47
2022-10-11T09:55:30.907Z,18.75
2022-10-11T09:58:39.041Z,18.67
2022-10-11T10:01:45.047Z,18.74
2022-10-11T10:05:08.754Z,19.01
2022-10-11T10:08:24.977Z,18.84
2022-10-11T10:11:37.497Z,18.96
2022-10-11T10:14:42.966Z,18.84
2022-10-11T10:17:51.439Z,18.79
2022-10-11T10:21:02.369Z,18.96
2022-10-11T10:24:33.733Z,19.04
2022-10-11T10:27:39.353Z,19.14
2022-10-11T10:30:54.660Z,19.08
2022-10-11T10:34:01.961Z,19.11
2022-10-11T10:37:18.823Z,19.27
2022-10-11T10:40:50.843Z,19.37
2022-10-11T10:43:58.860Z,19.52
2022-10-11T10:47:07.247Z,19.37
2022-10-11T10:50:19.429Z,19.48
2022-10-11T10:53:37.710Z,19.54
2022-10-11T10:57:04.199Z,19.82
2022-10-11T11:00:17.661Z,19.66
2022-10-11T11:04:20.416Z,19.70
2022-10-11T11:07:39.378Z,19.92
2022-10-11T11:11:15.355Z,20.18
2022-10-11T11:14:59.059Z,20.29
2022-10-11T11:18:34.002Z,20.37
2022-10-11T11:21:44.558Z,20.31
2022-10-11T11:25:01.521Z,20.61
2022-10-11T11:28:32.705Z,20.44
2022-10-11T11:31:49.430Z,20.40
2022-10-11T11:35:08.451Z,20.55
2022-10-11T11:38:35.458Z,20.67
2022-10-11T11:41:48.306Z,20.81
2022-10-11T11:44:54.139Z,20.76
2022-10-11T11:48:24.968Z,20.76
2022-10-11T11:51:43.043Z,20.85
2022-10-11T11:54:53.703Z,20.84
2022-10-11T11:58:16.365Z,20.97
2022-10-11T12:01:43.003Z,21.08
2022-10-11T12:04:50.762Z,21.27
2022-10-11T12:08:01.448Z,21.08
2022-10-11T12:11:07.683Z,20.93
2022-10-11T12:14:31.535Z,21.20
2022-10-11T12:17:56.519Z,20.93
2022-10-11T12:21:17.844Z,20.93
2022-10-11T12:24:24.791Z,20.98
2022-10-11T12:27:43.806Z,21.20
2022-10-11T12:30:48.834Z,21.48
2022-10-11T12:34:18.392Z,21.32
2022-10-11T12:37:23.841Z,21.40
2022-10-11T12:40:42.312Z,21.51
2022-10-11T12:43:50.403Z,21.44
2022-10-11T12:46:55.868Z,21.65
2022-10-11T12:50:26.181Z,21.76
2022-10-11T12:54:24.979Z,21.76
2022-10-11T12:57:31.892Z,21.76
2022-10-11T13:00:40.367Z,21.87
2022-10-11T13:03:49.583Z,21.82
2022-10-11T13:07:03.193Z,21.93
2022-10-11T13:10:16.539Z,21.69
2022-10-11T13:13:41.870Z,21.72
2022-10-11T13:17:05.709Z,21.74
2022-10-11T13:20:20.472Z,21.82
2022-10-11T13:23:36.092Z,21.98
2022-10-11T13:26:43.711Z,21.85
2022-10-11T13:29:51.797Z,21.97
2022-10-11T13:32:59.133Z,21.80
2022-10-11T13:36:08.949Z,21.76
2022-10-11T13:39:34.886Z,21.68
2022-10-11T13:42:40.847Z,21.54
2022-10-11T13:45:46.397Z,21.51
2022-10-11T13:49:03.534Z,21.67
2022-10-11T13:52:17.888Z,21.50
2022-10-11T13:55:51.587Z,21.50
2022-10-11T13:58:57.322Z,21.42
2022-10-11T14:02:04.921Z,21.49
2022-10-11T14:05:32.881Z,21.66
2022-10-11T14:08:44.225Z,21.74
2022-10-11T14:11:49.968Z,21.87
2022-10-11T14:14:55.945Z,21.96
2022-10-11T14:18:23.276Z,21.96
2022-10-11T14:21:46.087Z,21.81
2022-10-11T14:24:51.698Z,21.79
2022-10-11T14:27:57.683Z,21.56
2022-10-11T14:31:02.905Z,21.51
2022-10-11T14:34:16.198Z,21.51
2022-10-11T14:37:21.937Z,21.55
2022-10-11T14:40:30.359Z,21.64
2022-10-11T14:43:35.607Z,21.78
2022-10-11T14:46:41.506Z,21.96
2022-10-11T14:49:46.931Z,21.94
2022-10-11T14:52:51.908Z,21.93
2022-10-11T14:55:57.187Z,21.89
2022-10-11T14:59:02.370Z,21.84
2022-10-11T15:02:12.068Z,21.85
2022-10-11T15:05:17.544Z,21.80
2022-10-11T15:08:22.747Z,21.85
2022-10-11T15:11:28.180Z,21.82
2022-10-11T15:14:33.349Z,21.88
2022-10-11T15:17:38.575Z,21.88
2022-10-11T15:20:46.658Z,21.84
2022-10-11T15:23:53.908Z,21.67
2022-10-11T15:26:59.209Z,21.64
2022-10-11T15:30:13.981Z,21.61
2022-10-11T15:33:19.129Z,21.52
2022-10-11T15:36:24.340Z,21.41
2022-10-11T15:39:34.401Z,21.51
2022-10-11T15:42:39.848Z,21.34
2022-10-11T15:45:45.159Z,21.17
2022-10-11T15:48:52.849Z,21.19
2022-10-11T15:51:58.144Z,21.18
2022-10-11T15:55:03.852Z,21.14
2022-10-11T15:58:19.683Z,21.03
2022-10-11T16:01:25.787Z,21.02
2022-10-11T16:04:30.994Z,20.94
2022-10-11T16:07:36.214Z,20.75
2022-10-11T16:10:42.034Z,20.65
2022-10-11T16:13:49.372Z,20.46
2022-10-11T16:16:54.929Z,20.48
2022-10-11T16:20:00.805Z,20.41
2022-10-11T16:23:07.191Z,20.29
2022-10-11T16:26:16.828Z,20.15
2022-10-11T16:29:22.324Z,20.09
2022-10-11T16:32:28.977Z,20.02
2022-10-11T16:35:34.494Z,19.91
2022-10-11T16:38:39.922Z,19.85
2022-10-11T16:41:46.552Z,19.67
2022-10-11T16:44:52.754Z,19.60
2022-10-11T16:47:58.856Z,19.56
2022-10-11T16:51:08.552Z,19.46
2022-10-11T16:54:16.592Z,19.35
2022-10-11T16:57:24.872Z,19.30
2022-10-11T17:00:30.080Z,19.19
2022-10-11T17:03:35.361Z,19.15
2022-10-11T17:06:41.526Z,19.01
2022-10-11T17:09:48.779Z,19.00
2022-10-11T17:12:55.440Z,18.86
2022-10-11T17:16:00.893Z,18.86
2022-10-11T17:19:13.423Z,18.72
2022-10-11T17:22:20.034Z,18.59
2022-10-11T17:25:25.721Z,18.56
2022-10-11T17:28:35.915Z,18.44
2022-10-11T17:31:48.117Z,18.39
2022-10-11T17:34:54.351Z,18.40
2022-10-11T17:38:05.722Z,18.34
2022-10-11T17:41:11.795Z,18.26
2022-10-11T17:44:18.692Z,18.13
2022-10-11T17:47:24.240Z,18.15
2022-10-11T17:50:29.876Z,18.11
2022-10-11T17:53:35.757Z,18.09
2022-10-11T17:56:42.252Z,17.93
2022-10-11T17:59:47.609Z,17.75
2022-10-11T18:02:53.529Z,17.72
2022-10-11T18:06:07.397Z,17.77
2022-10-11T18:09:14.712Z,17.77
2022-10-11T18:12:20.264Z,17.62
2022-10-11T18:15:26.160Z,17.71
2022-10-11T18:18:31.602Z,17.62
2022-10-11T18:21:38.222Z,17.70
2022-10-11T18:24:43.512Z,17.58
2022-10-11T18:27:50.816Z,17.52
2022-10-11T18:30:57.768Z,17.54
2022-10-11T18:34:05.446Z,17.54
2022-10-11T18:37:11.081Z,17.54
2022-10-11T18:40:17.199Z,17.58
2022-10-11T18:43:22.931Z,17.60
2022-10-11T18:46:29.436Z,17.52
2022-10-11T18:49:35.101Z,17.46
2022-10-11T18:52:44.457Z,17.36
2022-10-11T18:55:51.064Z,17.38
2022-10-11T18:58:58.070Z,17.23
2022-10-11T19:02:05.102Z,17.08
2022-10-11T19:05:10.783Z,16.96
2022-10-11T19:08:16.456Z,17.03
2022-10-11T19:11:25.505Z,16.74
2022-10-11T19:14:33.037Z,16.57
2022-10-11T19:17:39.224Z,16.76
2022-10-11T19:20:44.719Z,16.94
2022-10-11T19:23:50.720Z,16.89
2022-10-11T19:27:01.377Z,16.69
2022-10-11T19:30:09.062Z,16.54
2022-10-11T19:33:14.538Z,16.68
2022-10-11T19:36:20.420Z,16.68
2022-10-11T19:39:26.075Z,16.53
2022-10-11T19:42:31.889Z,16.51
2022-10-11T19:45:37.783Z,16.59
2022-10-11T19:48:46.607Z,16.61
2022-10-11T19:51:53.061Z,16.67
2022-10-11T19:54:58.525Z,16.67
2022-10-11T19:58:08.201Z,16.60
2022-10-11T20:01:19.290Z,16.60
2022-10-11T20:04:50.999Z,16.63
2022-10-11T20:07:51.684Z,16.52
2022-10-11T20:11:02.043Z,16.56
2022-10-11T20:14:07.687Z,16.66
2022-10-11T20:17:13.395Z,16.54
2022-10-11T20:20:19.534Z,16.55
2022-10-11T20:23:27.774Z,16.56
2022-10-11T20:26:34.647Z,16.61
2022-10-11T20:29:40.324Z,16.60
2022-10-11T20:32:45.780Z,16.64
2022-10-11T20:36:02.731Z,16.55
2022-10-11T20:39:08.182Z,16.54
2022-10-11T20:42:13.880Z,16.61
2022-10-11T20:45:19.346Z,16.52
2022-10-11T20:48:24.965Z,16.47
2022-10-11T20:51:32.647Z,16.47
2022-10-11T20:54:41.020Z,16.48
2022-10-11T20:57:46.420Z,16.45
2022-10-11T21:00:51.889Z,16.34
2022-10-11T21:03:59.247Z,16.50
2022-10-11T21:07:04.373Z,16.49
2022-10-11T21:10:09.963Z,16.46
2022-10-11T21:13:15.373Z,16.42
2022-10-11T21:16:20.765Z,16.35
2022-10-11T21:19:26.358Z,16.23
2022-10-11T21:22:32.794Z,16.16
2022-10-11T21:25:39.857Z,16.10
2022-10-11T21:28:46.969Z,15.97
2022-10-11T21:31:53.000Z,15.92
2022-10-11T21:34:58.521Z,15.98
2022-10-11T21:38:03.933Z,15.88
2022-10-11T21:41:13.003Z,15.77
2022-10-11T21:44:18.760Z,15.76
2022-10-11T21:47:24.151Z,15.77
2022-10-11T21:50:29.665Z,15.82
2022-10-11T21:53:35.046Z,15.54
2022-10-11T21:56:40.917Z,15.56
2022-10-11T21:59:46.239Z,15.58
2022-10-11T22:02:54.729Z,15.59
2022-10-11T22:06:03.644Z,15.64
2022-10-11T22:09:09.717Z,15.34
2022-10-11T22:12:14.949Z,15.41
2022-10-11T22:15:20.209Z,15.50
2022-10-11T22:18:25.732Z,15.49
2022-10-11T22:21:31.284Z,15.29
2022-10-11T22:24:36.919Z,15.29
2022-10-11T22:27:42.490Z,15.20
2022-10-11T22:30:48.786Z,15.26
2022-10-11T22:33:56.026Z,15.29
2022-10-11T22:37:01.473Z,15.26
2022-10-11T22:40:07.585Z,15.28
2022-10-11T22:43:13.576Z,15.20
2022-10-11T22:46:18.795Z,15.02
2022-10-11T22:49:24.479Z,15.05
2022-10-11T22:52:30.195Z,15.05
2022-10-11T22:55:35.947Z,14.99
2022-10-11T22:58:44.287Z,14.93
2022-10-11T23:01:49.431Z,14.77
2022-10-11T23:04:54.996Z,14.84
2022-10-11T23:08:00.413Z,14.79
2022-10-11T23:11:07.830Z,14.59
2022-10-11T23:14:13.158Z,14.67
2022-10-11T23:17:19.220Z,14.61
2022-10-11T23:20:24.718Z,14.56
2022-10-11T23:23:30.394Z,14.52
2022-10-11T23:26:35.801Z,14.57
2022-10-11T23:29:41.488Z,14.59
2022-10-11T23:32:47.078Z,14.59
2022-10-11T23:35:52.711Z,14.52
2022-10-11T23:38:59.546Z,14.51
2022-10-11T23:42:04.821Z,14.41
2022-10-11T23:45:10.847Z,14.46
2022-10-11T23:48:16.343Z,14.39
2022-10-11T23:51:21.778Z,14.40
2022-10-11T23:54:27.292Z,14.46
2022-10-11T23:57:32.768Z,14.35
